Time;durP1;ratioP1;P1;durP2;ratioP2;P2;SDS_P1;SDS_P2;PMS_P1;PMS_P2;Temp;Humidity;BMP_temperature;BMP_pressure;BME280_temperature;BME280_humidity;BME280_pressure;Samples;Min_cycle;Max_cycle;Signal;HPM_P1;HPM_P2
2021/06/28 00:00:42;;;;;;;15.60;12.10;;;;;;;25.09;100.00;101094.75;4843791;29;20042;-75
2021/06/28 00:03:28;;;;;;;15.38;11.30;;;;;;;24.95;100.00;101097.56;4843618;29;20345;-75
2021/06/28 00:06:16;;;;;;;13.98;12.23;;;;;;;25.00;100.00;101095.41;4843594;29;20037;-76
2021/06/28 00:09:03;;;;;;;15.20;12.95;;;;;;;24.82;100.00;101102.03;4843650;29;20044;-75
2021/06/28 00:11:49;;;;;;;15.05;12.02;;;;;;;24.93;100.00;101096.78;4843461;29;20132;-76
2021/06/28 00:14:35;;;;;;;13.88;11.77;;;;;;;24.83;100.00;101101.94;4842904;29;20062;-76
2021/06/28 00:17:20;;;;;;;18.92;13.43;;;;;;;24.80;100.00;101095.94;4843688;29;20032;-75
2021/06/28 00:20:08;;;;;;;14.05;12.13;;;;;;;24.91;100.00;101091.53;4832683;29;20034;-75
2021/06/28 00:22:54;;;;;;;13.63;12.02;;;;;;;24.91;100.00;101094.22;4834389;29;20375;-75
2021/06/28 00:25:40;;;;;;;16.23;12.57;;;;;;;24.93;100.00;101094.97;4846794;29;20539;-75
2021/06/28 00:28:26;;;;;;;14.35;11.95;;;;;;;24.85;100.00;101091.97;4833880;29;20103;-75
2021/06/28 00:31:12;;;;;;;15.38;11.70;;;;;;;24.70;100.00;101087.69;4846411;29;20485;-76
2021/06/28 00:33:59;;;;;;;18.40;12.15;;;;;;;24.67;100.00;101085.22;4833373;29;20174;-75
2021/06/28 00:36:44;;;;;;;17.13;11.45;;;;;;;24.66;100.00;101088.88;4846954;29;20045;-76
2021/06/28 00:39:30;;;;;;;16.55;11.93;;;;;;;24.92;100.00;101087.91;4847063;29;20030;-77
2021/06/28 00:42:16;;;;;;;18.60;11.48;;;;;;;24.89;100.00;101082.75;4846955;29;20470;-77
2021/06/28 00:45:21;;;;;;;17.95;11.82;;;;;;;24.72;100.00;101093.81;4846701;29;20109;-77
2021/06/28 00:48:11;;;;;;;18.25;11.98;;;;;;;24.69;100.00;101085.97;4846449;29;20042;-77
2021/06/28 00:50:57;;;;;;;17.92;11.93;;;;;;;24.55;100.00;101087.88;4846941;29;20030;-76
2021/06/28 00:53:43;;;;;;;19.48;12.13;;;;;;;24.67;100.00;101084.38;4833939;29;20025;-76
2021/06/28 00:56:29;;;;;;;18.30;12.60;;;;;;;24.69;100.00;101090.47;4846419;29;20058;-76
2021/06/28 00:59:16;;;;;;;15.18;11.82;;;;;;;24.53;100.00;101087.09;4846687;29;20048;-76
2021/06/28 01:02:04;;;;;;;17.10;13.10;;;;;;;23.85;100.00;101089.06;4846176;29;20029;-76
2021/06/28 01:04:49;;;;;;;15.20;11.88;;;;;;;24.30;100.00;101086.00;4846096;29;20460;-76
2021/06/28 01:07:35;;;;;;;16.73;12.35;;;;;;;24.10;100.00;101088.34;4845451;29;20034;-76
2021/06/28 01:10:22;;;;;;;20.20;12.93;;;;;;;23.94;100.00;101085.81;4846683;29;20106;-76
2021/06/28 01:13:08;;;;;;;14.00;12.45;;;;;;;24.13;100.00;101078.28;4844992;29;20030;-76
2021/06/28 01:15:54;;;;;;;16.02;11.98;;;;;;;24.32;100.00;101072.50;4846185;29;20344;-76
2021/06/28 01:18:40;;;;;;;17.35;12.20;;;;;;;24.05;100.00;101072.56;4846308;29;20040;-76
2021/06/28 01:21:31;;;;;;;14.52;11.27;;;;;;;24.21;100.00;101077.75;4845938;29;20026;-76
2021/06/28 01:24:16;;;;;;;16.80;11.23;;;;;;;24.11;100.00;101076.66;4845652;29;20454;-76
2021/06/28 01:27:02;;;;;;;16.98;10.77;;;;;;;24.33;100.00;101072.41;4846451;29;20029;-76
2021/06/28 01:29:49;;;;;;;12.93;9.70;;;;;;;24.23;100.00;101076.66;4845308;29;20121;-76
2021/06/28 01:32:35;;;;;;;14.85;10.50;;;;;;;24.40;100.00;101083.56;4847570;29;20034;-76
2021/06/28 01:35:21;;;;;;;11.80;9.65;;;;;;;24.07;100.00;101084.03;4845422;29;20178;-75
2021/06/28 01:38:08;;;;;;;13.32;10.05;;;;;;;24.51;100.00;101089.88;4847387;29;20048;-76
2021/06/28 01:40:54;;;;;;;13.38;9.82;;;;;;;24.37;100.00;101091.81;4845768;29;20458;-76
2021/06/28 01:43:42;;;;;;;12.90;9.38;;;;;;;24.37;100.00;101089.13;4846983;29;20090;-75
2021/06/28 01:46:27;;;;;;;10.55;9.45;;;;;;;24.45;100.00;101089.47;4833479;29;20030;-75
2021/06/28 01:49:13;;;;;;;11.07;8.82;;;;;;;24.29;100.00;101097.69;4847302;29;20104;-75
2021/06/28 01:51:59;;;;;;;15.18;10.27;;;;;;;24.22;100.00;101107.09;4831615;29;20030;-76
2021/06/28 01:54:45;;;;;;;13.02;9.48;;;;;;;23.96;100.00;101104.44;4832124;29;20113;-75
2021/06/28 01:57:30;;;;;;;12.85;9.32;;;;;;;23.97;100.00;101099.00;4832227;29;20070;-75
2021/06/28 02:00:21;;;;;;;11.18;9.48;;;;;;;24.12;100.00;101103.34;4847020;29;20034;-75
2021/06/28 02:03:11;;;;;;;13.27;9.40;;;;;;;24.10;100.00;101104.41;4832859;29;20064;-76
2021/06/28 02:05:58;;;;;;;13.77;9.65;;;;;;;24.51;100.00;101108.63;4845725;29;20038;-75
2021/06/28 02:08:44;;;;;;;12.45;9.35;;;;;;;24.15;100.00;101108.47;4846722;29;20026;-76
2021/06/28 02:11:29;;;;;;;15.50;9.45;;;;;;;24.30;100.00;101106.59;4846839;29;20034;-75
2021/06/28 02:14:16;;;;;;;15.20;9.98;;;;;;;24.59;100.00;101110.81;4846625;29;20136;-76
2021/06/28 02:17:02;;;;;;;12.57;11.02;;;;;;;24.06;100.00;101110.94;4847268;29;20026;-76
2021/06/28 02:19:48;;;;;;;17.00;10.68;;;;;;;24.25;100.00;101111.38;4844901;29;20034;-75
2021/06/28 02:22:33;;;;;;;15.88;10.20;;;;;;;23.95;100.00;101114.28;4844741;29;20037;-75
2021/06/28 02:25:20;;;;;;;11.75;9.57;;;;;;;23.88;100.00;101109.41;4844049;29;20054;-75
2021/06/28 02:28:06;;;;;;;15.05;10.27;;;;;;;23.69;100.00;101116.94;4846376;29;20038;-75
2021/06/28 02:30:52;;;;;;;12.90;9.73;;;;;;;23.80;100.00;101117.97;4844177;29;20044;-75
2021/06/28 02:33:40;;;;;;;13.27;9.95;;;;;;;23.51;100.00;101121.69;4846568;29;20106;-75
2021/06/28 02:36:27;;;;;;;17.48;10.85;;;;;;;23.67;100.00;101130.44;4845124;29;20034;-75
2021/06/28 02:39:13;;;;;;;12.82;10.18;;;;;;;23.92;100.00;101124.34;4844754;29;20037;-75
2021/06/28 02:41:59;;;;;;;16.33;10.75;;;;;;;23.42;100.00;101136.50;4843620;29;20026;-76
2021/06/28 02:44:44;;;;;;;16.10;11.05;;;;;;;23.68;100.00;101136.63;4844587;29;20492;-76
2021/06/28 02:47:30;;;;;;;15.77;11.15;;;;;;;23.86;100.00;101132.75;4844828;29;20064;-76
2021/06/28 02:50:17;;;;;;;15.23;10.82;;;;;;;23.75;100.00;101135.28;4843746;29;20030;-76
2021/06/28 02:53:04;;;;;;;20.50;10.38;;;;;;;23.42;100.00;101144.50;4831212;29;20420;-76
2021/06/28 02:55:51;;;;;;;19.58;11.13;;;;;;;23.75;100.00;101137.94;4844280;29;20029;-76
2021/06/28 02:58:37;;;;;;;16.38;10.55;;;;;;;23.88;100.00;101141.53;4844575;29;20034;-76
2021/06/28 03:01:25;;;;;;;16.67;10.73;;;;;;;24.13;100.00;101139.84;4843643;29;20022;-76
2021/06/28 03:04:11;;;;;;;16.98;11.27;;;;;;;23.05;100.00;101154.91;4844300;29;20040;-76
2021/06/28 03:06:56;;;;;;;18.52;11.73;;;;;;;23.16;100.00;101160.44;4843766;29;20041;-76
2021/06/28 03:09:42;;;;;;;15.88;11.40;;;;;;;23.28;100.00;101155.19;4843764;29;20034;-76
2021/06/28 03:12:28;;;;;;;19.50;11.52;;;;;;;23.42;100.00;101165.03;4844221;29;20456;-76
2021/06/28 03:15:17;;;;;;;20.00;11.50;;;;;;;23.52;100.00;101165.31;4844296;29;20049;-76
2021/06/28 03:18:04;;;;;;;15.77;11.05;;;;;;;23.73;100.00;101166.59;4843702;29;20029;-76
2021/06/28 03:20:51;;;;;;;15.65;11.82;;;;;;;23.85;100.00;101165.81;4843682;29;20030;-76
2021/06/28 03:23:39;;;;;;;17.15;12.52;;;;;;;23.69;100.00;101163.28;4843331;29;20057;-76
2021/06/28 03:26:24;;;;;;;19.88;13.20;;;;;;;23.52;100.00;101169.69;4843171;29;20061;-76
2021/06/28 03:29:10;;;;;;;17.73;12.30;;;;;;;23.49;100.00;101169.06;4844012;29;20041;-76
2021/06/28 03:31:56;;;;;;;18.58;12.20;;;;;;;23.60;100.00;101161.22;4843034;29;20030;-76
2021/06/28 03:34:42;;;;;;;21.42;13.32;;;;;;;23.50;100.00;101167.25;4843592;29;20363;-76
2021/06/28 03:37:28;;;;;;;20.00;12.63;;;;;;;23.45;100.00;101156.81;4843615;29;20456;-76
2021/06/28 03:40:16;;;;;;;21.45;12.35;;;;;;;23.41;100.00;101166.00;4843620;29;20044;-76
2021/06/28 03:43:05;;;;;;;18.08;12.13;;;;;;;23.82;100.00;101149.97;4843261;29;20452;-76
2021/06/28 03:45:51;;;;;;;20.20;11.98;;;;;;;23.84;100.00;101158.75;4844161;29;20033;-76
2021/06/28 03:48:36;;;;;;;17.75;11.63;;;;;;;23.87;100.00;101156.72;4843640;29;20056;-76
2021/06/28 03:51:22;;;;;;;14.90;11.35;;;;;;;24.05;100.00;101157.38;4843691;29;20425;-77
2021/06/28 03:54:08;;;;;;;20.13;12.13;;;;;;;24.14;100.00;101157.63;4844827;29;20444;-75
2021/06/28 03:56:54;;;;;;;19.85;11.80;;;;;;;24.03;100.00;101162.81;4847621;29;20037;-76
2021/06/28 03:59:40;;;;;;;14.73;11.10;;;;;;;24.31;100.00;101157.34;4847493;29;20037;-75
2021/06/28 04:02:27;;;;;;;18.30;12.20;;;;;;;24.40;100.00;101172.84;4847033;29;20030;-74
2021/06/28 04:05:21;;;;;;;17.05;11.80;;;;;;;24.29;100.00;101171.81;4847683;29;20038;-75
2021/06/28 04:08:07;;;;;;;15.63;11.20;;;;;;;24.40;100.00;101175.50;4846999;29;20364;-75
2021/06/28 04:10:53;;;;;;;20.33;12.30;;;;;;;24.41;100.00;101179.91;4834053;29;20120;-75
2021/06/28 04:13:39;;;;;;;16.40;11.95;;;;;;;24.42;100.00;101186.97;4846441;29;20034;-75
2021/06/28 04:16:25;;;;;;;16.27;11.90;;;;;;;24.45;100.00;101188.59;4847015;29;20498;-75
2021/06/28 04:19:11;;;;;;;17.77;12.23;;;;;;;24.39;100.00;101184.50;4847005;29;20082;-75
2021/06/28 04:21:57;;;;;;;20.15;12.98;;;;;;;24.66;100.00;101187.16;4846495;29;20030;-75
2021/06/28 04:24:43;;;;;;;16.40;12.80;;;;;;;24.62;100.00;101194.56;4846084;29;20137;-76
2021/06/28 04:27:28;;;;;;;17.40;12.40;;;;;;;24.73;100.00;101186.66;4846858;29;20040;-76
2021/06/28 04:30:16;;;;;;;22.42;13.23;;;;;;;24.54;100.00;101187.94;4845744;29;20191;-76
2021/06/28 04:33:03;;;;;;;21.63;12.52;;;;;;;24.49;100.00;101190.09;4846277;29;20022;-76
2021/06/28 04:35:48;;;;;;;23.85;12.82;;;;;;;24.89;100.00;101195.34;4846596;29;20444;-76
2021/06/28 04:38:34;;;;;;;18.55;12.98;;;;;;;24.69;100.00;101190.50;4833255;29;20411;-75
2021/06/28 04:41:20;;;;;;;20.35;12.80;;;;;;;24.92;100.00;101189.78;4846821;29;20109;-76
2021/06/28 04:44:06;;;;;;;18.10;12.93;;;;;;;24.49;100.00;101185.59;4846494;29;20422;-76
2021/06/28 04:46:51;;;;;;;18.13;13.30;;;;;;;24.51;100.00;101185.50;4846626;29;20038;-76
2021/06/28 04:49:37;;;;;;;18.45;14.05;;;;;;;24.48;100.00;101193.75;4845956;29;20057;-76
2021/06/28 04:52:23;;;;;;;20.77;13.93;;;;;;;24.80;100.00;101190.63;4845807;29;20444;-76
2021/06/28 04:55:12;;;;;;;21.02;13.43;;;;;;;25.20;100.00;101189.56;4846073;29;20038;-76
2021/06/28 04:57:58;;;;;;;19.55;13.45;;;;;;;25.27;100.00;101195.38;4846753;29;20030;-76
2021/06/28 05:00:43;;;;;;;19.88;13.43;;;;;;;24.58;100.00;101195.69;4846055;29;20030;-76
2021/06/28 05:03:29;;;;;;;27.05;13.88;;;;;;;24.84;100.00;101202.88;4845844;29;20038;-76
2021/06/28 05:06:15;;;;;;;22.20;12.38;;;;;;;24.90;100.00;101205.09;4845837;29;20088;-76
2021/06/28 05:09:01;;;;;;;16.63;13.00;;;;;;;24.83;100.00;101205.66;4845924;29;20041;-76
2021/06/28 05:11:46;;;;;;;20.60;13.30;;;;;;;24.88;100.00;101211.53;4846662;29;20077;-76
2021/06/28 05:14:32;;;;;;;22.38;13.18;;;;;;;25.10;100.00;101209.94;4845041;29;20070;-76
2021/06/28 05:17:18;;;;;;;22.05;13.05;;;;;;;25.25;100.00;101208.88;4845407;29;20029;-76
2021/06/28 05:20:05;;;;;;;20.33;13.63;;;;;;;25.32;100.00;101212.03;4845332;29;20026;-76
2021/06/28 05:22:51;;;;;;;23.95;13.82;;;;;;;25.75;100.00;101210.66;4832491;29;20049;-75
2021/06/28 05:25:37;;;;;;;19.90;13.38;;;;;;;25.48;100.00;101223.41;4845727;29;20384;-75
2021/06/28 05:28:23;;;;;;;18.33;13.05;;;;;;;25.70;100.00;101215.50;4832622;29;20037;-74
2021/06/28 05:31:09;;;;;;;19.55;13.75;;;;;;;25.90;100.00;101223.84;4845640;29;20524;-75
2021/06/28 05:33:54;;;;;;;18.58;13.45;;;;;;;25.84;100.00;101224.28;4832672;29;20072;-75
2021/06/28 05:37:24;;;;;;;18.90;13.32;;;;;;;25.52;100.00;101225.72;4847329;29;20651;-77
2021/06/28 05:40:11;;;;;;;19.08;13.30;;;;;;;25.48;100.00;101226.91;4847236;29;20041;-75
2021/06/28 05:42:57;;;;;;;20.48;12.75;;;;;;;25.78;100.00;101219.38;4905625;23;20138;-75
2021/06/28 05:45:46;;;;;;;21.13;14.48;;;;;;;25.76;100.00;101229.34;4864807;29;20415;-78
2021/06/28 05:48:43;;;;;;;17.00;12.50;;;;;;;26.15;100.00;101234.53;4864638;29;20064;-77
2021/06/28 05:51:29;;;;;;;19.48;12.82;;;;;;;26.19;100.00;101230.66;4852386;29;20053;-76
2021/06/28 05:54:45;;;;;;;14.60;12.02;;;;;;;26.08;100.00;101243.16;4870082;24;20472;-77
2021/06/28 05:57:33;;;;;;;18.35;11.60;;;;;;;26.30;100.00;101240.59;4791845;29;20038;-76
2021/06/28 06:00:23;;;;;;;16.83;12.05;;;;;;;26.22;100.00;101241.19;4834017;29;20034;-77
2021/06/28 06:03:09;;;;;;;20.30;12.02;;;;;;;26.37;100.00;101244.56;4845202;29;20033;-77
2021/06/28 06:05:55;;;;;;;18.38;12.70;;;;;;;26.27;100.00;101247.06;4845693;29;20471;-77
2021/06/28 06:08:41;;;;;;;16.73;12.48;;;;;;;26.18;100.00;101245.06;4845018;29;20553;-76
2021/06/28 06:11:27;;;;;;;18.42;11.90;;;;;;;26.58;100.00;101253.72;4845907;29;20065;-76
2021/06/28 06:14:14;;;;;;;16.42;12.68;;;;;;;26.91;100.00;101251.16;4843837;29;20121;-77
2021/06/28 06:17:00;;;;;;;14.43;12.15;;;;;;;26.50;100.00;101256.97;4845074;29;20049;-76
2021/06/28 06:19:46;;;;;;;19.45;12.65;;;;;;;27.27;100.00;101254.59;4843941;29;20137;-77
2021/06/28 06:22:32;;;;;;;18.35;13.57;;;;;;;27.32;100.00;101254.22;4844228;29;20036;-77
2021/06/28 06:25:18;;;;;;;18.67;12.52;;;;;;;27.17;100.00;101258.09;4844803;29;20042;-77
2021/06/28 06:28:04;;;;;;;14.73;12.73;;;;;;;27.38;100.00;101256.44;4832539;29;20040;-77
2021/06/28 06:30:50;;;;;;;18.40;12.82;;;;;;;27.42;100.00;101253.41;4844162;29;20114;-77
2021/06/28 06:33:36;;;;;;;18.38;13.10;;;;;;;27.82;100.00;101255.63;4845480;29;20045;-76
2021/06/28 06:36:22;;;;;;;18.15;12.63;;;;;;;28.15;100.00;101258.28;4845655;29;20026;-77
2021/06/28 06:39:08;;;;;;;19.75;12.02;;;;;;;28.49;100.00;101251.88;4844717;29;20117;-77
2021/06/28 06:41:53;;;;;;;19.35;12.70;;;;;;;29.01;100.00;101247.34;4847264;29;20325;-76
2021/06/28 06:44:39;;;;;;;20.00;13.30;;;;;;;28.73;100.00;101250.66;4833291;29;20433;-76
2021/06/28 06:47:44;;;;;;;19.13;12.88;;;;;;;28.45;100.00;101250.41;4847476;29;20072;-76
2021/06/28 06:50:30;;;;;;;20.88;13.45;;;;;;;28.48;100.00;101251.00;4834665;29;20022;-77
2021/06/28 06:53:16;;;;;;;19.15;13.13;;;;;;;28.29;100.00;101258.03;4845945;29;20057;-77
2021/06/28 06:56:05;;;;;;;15.60;12.85;;;;;;;28.30;100.00;101249.81;4843488;29;20045;-75
2021/06/28 06:58:52;;;;;;;16.00;11.93;;;;;;;29.08;100.00;101256.63;4845691;29;20045;-77
2021/06/28 07:01:40;;;;;;;18.83;12.82;;;;;;;29.21;100.00;101262.69;4844443;29;20044;-75
2021/06/28 07:04:28;;;;;;;19.40;12.70;;;;;;;29.53;100.00;101266.16;4846005;29;20105;-76
2021/06/28 07:07:17;;;;;;;21.25;12.90;;;;;;;29.16;100.00;101264.06;4818928;29;20030;-75
2021/06/28 07:10:07;;;;;;;18.20;12.73;;;;;;;29.51;100.00;101262.75;4844402;29;20124;-77
2021/06/28 07:12:55;;;;;;;17.58;12.88;;;;;;;29.45;100.00;101265.97;4842979;29;20108;-78
2021/06/28 07:15:44;;;;;;;17.00;12.52;;;;;;;29.76;100.00;101265.03;4843386;29;20041;-77
2021/06/28 07:18:30;;;;;;;16.10;11.95;;;;;;;30.19;100.00;101262.94;4843302;29;20094;-77
2021/06/28 07:21:16;;;;;;;18.00;11.63;;;;;;;29.63;100.00;101260.84;4843308;29;20034;-77
2021/06/28 07:24:06;;;;;;;17.33;12.35;;;;;;;29.93;100.00;101267.06;4843651;29;20034;-76
2021/06/28 07:26:53;;;;;;;15.82;11.95;;;;;;;30.10;100.00;101265.56;4844656;29;20372;-76
2021/06/28 07:29:39;;;;;;;16.70;13.00;;;;;;;29.72;100.00;101269.00;4831334;29;20041;-76
2021/06/28 07:32:25;;;;;;;17.17;12.48;;;;;;;29.39;100.00;101274.63;4831286;29;20041;-76
2021/06/28 07:35:12;;;;;;;19.05;12.05;;;;;;;29.81;100.00;101281.66;4831882;29;20040;-76
2021/06/28 07:37:57;;;;;;;15.70;12.05;;;;;;;30.13;100.00;101276.94;4842520;29;20113;-76
2021/06/28 07:40:46;;;;;;;15.57;12.13;;;;;;;30.54;100.00;101275.94;4819199;29;20037;-76
2021/06/28 07:43:37;;;;;;;16.38;11.77;;;;;;;30.17;100.00;101270.31;4843783;29;20110;-76
2021/06/28 07:46:23;;;;;;;16.15;12.07;;;;;;;29.44;100.00;101266.09;4845517;29;20475;-75
2021/06/28 07:49:15;;;;;;;17.70;12.43;;;;;;;29.28;100.00;101269.28;4843131;29;20056;-77
2021/06/28 07:52:01;;;;;;;17.73;13.05;;;;;;;29.57;100.00;101270.31;4831044;29;20485;-76
2021/06/28 07:54:47;;;;;;;17.40;11.60;;;;;;;30.71;100.00;101269.88;4843551;29;20041;-76
2021/06/28 07:57:34;;;;;;;19.80;12.07;;;;;;;30.80;100.00;101275.28;4844850;29;20050;-75
2021/06/28 08:00:20;;;;;;;15.07;12.38;;;;;;;30.24;100.00;101270.59;4844558;29;20056;-75
2021/06/28 08:03:07;;;;;;;17.98;13.27;;;;;;;30.72;100.00;101269.72;4830812;29;20034;-76
2021/06/28 08:05:53;;;;;;;18.77;12.77;;;;;;;30.74;100.00;101269.59;4843851;29;20112;-75
2021/06/28 08:08:39;;;;;;;19.13;12.10;;;;;;;30.45;100.00;101272.22;4842873;29;20116;-75
2021/06/28 08:11:25;;;;;;;16.83;12.80;;;;;;;31.01;100.00;101275.97;4843585;29;20029;-75
2021/06/28 08:14:13;;;;;;;16.30;11.85;;;;;;;32.07;100.00;101280.16;4843379;29;20037;-75
2021/06/28 08:16:58;;;;;;;17.02;11.90;;;;;;;32.13;100.00;101281.38;4831585;29;20110;-76
2021/06/28 08:19:46;;;;;;;27.80;11.80;;;;;;;32.83;100.00;101274.22;4842968;29;20030;-76
2021/06/28 08:22:32;;;;;;;21.48;12.30;;;;;;;32.27;100.00;101278.16;4844534;29;20041;-76
2021/06/28 08:25:21;;;;;;;17.02;11.45;;;;;;;32.97;100.00;101276.41;4842523;29;20112;-76
2021/06/28 08:28:08;;;;;;;14.23;11.05;;;;;;;33.15;100.00;101276.38;4829958;29;20372;-76
2021/06/28 08:30:54;;;;;;;17.63;11.35;;;;;;;32.69;100.00;101276.59;4843888;29;20056;-76
2021/06/28 08:33:41;;;;;;;16.00;11.35;;;;;;;32.63;100.00;101275.38;4844438;29;20038;-75
2021/06/28 08:36:26;;;;;;;18.35;11.82;;;;;;;32.82;100.00;101277.97;4843871;29;20034;-76
2021/06/28 08:39:14;;;;;;;15.30;11.25;;;;;;;32.47;100.00;101272.50;4843130;29;20033;-75
2021/06/28 08:42:05;;;;;;;13.18;11.05;;;;;;;32.22;100.00;101284.03;4847596;29;20085;-75
2021/06/28 08:44:51;;;;;;;15.18;10.07;;;;;;;31.80;100.00;101273.84;4845703;29;20033;-75
2021/06/28 08:47:37;;;;;;;12.95;10.30;;;;;;;32.07;100.00;101272.00;4847201;29;20034;-75
2021/06/28 08:50:23;;;;;;;14.40;10.25;;;;;;;32.02;100.00;101274.28;4846971;29;20038;-75
2021/06/28 08:53:10;;;;;;;15.10;10.73;;;;;;;32.05;100.00;101265.88;4832724;29;20228;-75
2021/06/28 08:55:55;;;;;;;15.50;10.60;;;;;;;31.74;100.00;101263.56;4832612;29;20030;-75
2021/06/28 08:58:41;;;;;;;11.93;10.38;;;;;;;31.42;100.00;101262.09;4845155;29;20030;-75
2021/06/28 09:01:27;;;;;;;15.57;10.57;;;;;;;31.66;100.00;101261.59;4845272;29;20026;-75
2021/06/28 09:04:13;;;;;;;14.85;10.52;;;;;;;32.18;100.00;101263.66;4833293;29;20482;-75
2021/06/28 09:07:21;;;;;;;17.50;11.23;;;;;;;32.40;100.00;101260.56;4832863;29;20042;-76
2021/06/28 09:10:31;;;;;;;16.10;10.63;;;;;;;31.91;100.00;101263.66;4846804;29;20362;-75
2021/06/28 09:13:17;;;;;;;16.17;10.75;;;;;;;32.38;100.00;101261.72;4846546;29;20034;-75
2021/06/28 09:16:19;;;;;;;13.30;11.48;;;;;;;32.17;100.00;101259.22;4833649;29;20030;-76
2021/06/28 09:19:13;;;;;;;15.93;12.60;;;;;;;32.19;100.00;101262.66;4846177;29;20036;-75
2021/06/28 09:21:59;;;;;;;14.88;9.90;;;;;;;32.65;100.00;101258.94;4833458;29;20072;-75
2021/06/28 09:24:49;;;;;;;18.17;10.10;;;;;;;32.75;100.00;101265.16;4845590;29;20066;-75
2021/06/28 09:27:43;;;;;;;11.40;9.40;;;;;;;32.91;100.00;101252.56;4845310;29;20038;-75
2021/06/28 09:30:31;;;;;;;10.70;9.55;;;;;;;33.41;100.00;101256.41;4844839;29;20360;-75
2021/06/28 09:33:20;;;;;;;14.80;9.35;;;;;;;33.32;100.00;101254.66;4845463;29;20085;-75
2021/06/28 09:36:21;;;;;;;13.82;9.23;;;;;;;34.07;100.00;101256.59;4846137;29;20124;-75
2021/06/28 09:39:25;;;;;;;13.38;9.30;;;;;;;33.67;100.00;101254.50;4845306;29;20452;-76
2021/06/28 09:42:12;;;;;;;11.18;9.52;;;;;;;33.85;100.00;101257.19;4844902;29;20037;-76
2021/06/28 09:45:02;;;;;;;14.88;9.90;;;;;;;33.78;100.00;101254.22;4844826;29;20103;-76
2021/06/28 09:47:51;;;;;;;12.80;11.38;;;;;;;33.06;100.00;101248.28;4832152;29;20042;-75
2021/06/28 09:50:37;;;;;;;11.95;8.90;;;;;;;32.73;100.00;101253.56;4845217;29;20022;-75
2021/06/28 09:53:26;;;;;;;12.75;10.43;;;;;;;32.09;100.00;101247.44;4844609;29;20077;-76
2021/06/28 09:56:29;;;;;;;11.98;9.57;;;;;;;32.08;100.00;101249.31;4845466;29;20041;-76
2021/06/28 09:59:21;;;;;;;14.55;9.40;;;;;;;31.48;100.00;101248.97;4846060;29;20045;-76
2021/06/28 10:02:37;;;;;;;11.68;10.07;;;;;;;31.74;100.00;101250.84;4831789;29;20057;-76
2021/06/28 10:05:27;;;;;;;11.00;9.55;;;;;;;31.32;100.00;101249.59;4845813;29;20049;-76
2021/06/28 10:08:16;;;;;;;13.18;9.82;;;;;;;31.20;100.00;101246.16;4832096;29;20033;-76
2021/06/28 10:11:11;;;;;;;16.27;10.20;;;;;;;31.22;100.00;101246.88;4832053;29;20030;-75
2021/06/28 10:14:05;;;;;;;11.10;9.48;;;;;;;31.20;100.00;101251.59;4845596;29;20034;-76
2021/06/28 10:16:56;;;;;;;9.52;8.52;;;;;;;31.40;100.00;101241.59;4845331;29;20040;-76
2021/06/28 10:19:43;;;;;;;14.63;8.68;;;;;;;31.45;100.00;101246.56;4844752;29;20057;-76
2021/06/28 10:22:28;;;;;;;12.23;8.90;;;;;;;32.19;100.00;101242.81;4832275;29;20049;-76
2021/06/28 10:25:17;;;;;;;13.23;9.27;;;;;;;32.28;100.00;101231.03;4844030;29;20452;-76
2021/06/28 10:28:04;;;;;;;14.52;12.57;;;;;;;32.17;100.00;101231.25;4845130;29;20089;-76
2021/06/28 10:30:54;;;;;;;11.35;9.27;;;;;;;32.14;100.00;101231.56;4832280;29;20045;-76
2021/06/28 10:33:44;;;;;;;11.38;9.18;;;;;;;31.90;100.00;101224.00;4845597;29;20049;-76
2021/06/28 10:36:37;;;;;;;13.10;9.13;;;;;;;32.07;100.00;101222.34;4845134;29;20106;-76
2021/06/28 10:39:31;;;;;;;9.85;8.70;;;;;;;32.78;100.00;101215.97;4845631;29;20033;-77
2021/06/28 10:42:29;;;;;;;11.77;8.55;;;;;;;32.78;100.00;101215.97;4844748;29;20029;-75
2021/06/28 10:45:17;;;;;;;12.60;8.93;;;;;;;32.84;100.00;101224.38;4845112;29;20045;-76
2021/06/28 10:48:10;;;;;;;13.68;8.63;;;;;;;32.25;100.00;101215.94;4844245;29;20046;-76
2021/06/28 10:51:07;;;;;;;10.82;9.15;;;;;;;32.36;100.00;101215.75;4831024;29;20027;-76
2021/06/28 10:53:53;;;;;;;13.10;8.15;;;;;;;32.12;100.00;101209.16;4844544;29;20062;-75
2021/06/28 10:56:41;;;;;;;10.73;8.57;;;;;;;32.62;100.00;101204.97;4844188;29;20455;-76
2021/06/28 10:59:32;;;;;;;11.68;8.70;;;;;;;32.00;100.00;101199.53;4844183;29;20034;-75
2021/06/28 11:02:19;;;;;;;13.05;8.52;;;;;;;32.87;100.00;101204.19;4843271;29;20029;-76
2021/06/28 11:05:10;;;;;;;9.98;8.98;;;;;;;33.00;100.00;101216.34;4845171;29;20416;-76
2021/06/28 11:08:16;;;;;;;12.38;8.48;;;;;;;32.78;100.00;101202.41;4832386;29;20401;-77
2021/06/28 11:11:02;;;;;;;11.60;8.30;;;;;;;32.57;100.00;101191.88;4844784;29;20040;-76
2021/06/28 11:13:54;;;;;;;10.43;8.65;;;;;;;32.91;100.00;101200.16;4844127;29;20044;-76
2021/06/28 11:16:40;;;;;;;12.27;9.13;;;;;;;32.91;100.00;101203.69;4844389;29;20034;-77
2021/06/28 11:19:59;;;;;;;13.77;8.63;;;;;;;32.46;100.00;101213.78;4844197;29;20034;-76
2021/06/28 11:22:54;;;;;;;10.82;8.93;;;;;;;32.32;100.00;101214.34;4844187;29;20104;-75
2021/06/28 11:25:55;;;;;;;10.95;8.82;;;;;;;31.97;100.00;101208.00;4844427;29;20125;-74
2021/06/28 11:28:42;;;;;;;10.43;8.85;;;;;;;31.97;100.00;101216.13;4843971;29;20374;-76
2021/06/28 11:31:31;;;;;;;12.00;8.48;;;;;;;31.18;100.00;101221.06;4832552;29;20463;-76
2021/06/28 11:34:47;;;;;;;17.92;9.60;;;;;;;31.33;100.00;101228.78;4845694;29;20029;-76
2021/06/28 11:38:16;;;;;;;11.35;8.68;;;;;;;30.40;100.00;101236.63;4843340;29;20118;-76
2021/06/28 11:44:48;;;;;;;18.55;8.65;;;;;;;29.26;100.00;101241.56;4983546;23;20064;-76
2021/06/28 11:47:49;;;;;;;14.25;8.65;;;;;;;29.11;100.00;101223.13;4862870;29;20065;-76
2021/06/28 12:35:43;;;;;;;9.52;6.93;;;;;;;33.04;94.71;101192.44;5872193;23;19918;-77
2021/06/28 12:38:30;;;;;;;10.30;7.18;;;;;;;34.25;90.53;101195.59;4846968;29;20141;-76
2021/06/28 12:41:22;;;;;;;13.75;7.22;;;;;;;33.95;99.89;101192.66;4833065;29;20034;-75
2021/06/28 12:44:08;;;;;;;9.05;7.15;;;;;;;33.69;96.00;101189.09;4847008;29;20117;-75
2021/06/28 12:46:54;;;;;;;10.15;6.88;;;;;;;33.93;93.15;101178.34;4846780;29;20041;-75
2021/06/28 12:49:40;;;;;;;12.85;7.47;;;;;;;33.98;96.18;101185.00;4846603;29;20109;-75
2021/06/28 12:52:33;;;;;;;11.80;7.60;;;;;;;34.29;95.92;101185.22;4835335;29;20180;-75
2021/06/28 12:55:32;;;;;;;9.90;7.13;;;;;;;33.99;94.40;101175.81;4847191;29;20034;-75
2021/06/28 12:58:19;;;;;;;10.07;7.20;;;;;;;33.74;96.86;101168.56;4847460;29;20037;-76
2021/06/28 13:01:27;;;;;;;11.50;7.55;;;;;;;32.73;100.00;101173.00;4834500;29;20048;-75
2021/06/28 13:04:31;;;;;;;15.75;7.85;;;;;;;31.56;100.00;101184.06;4871781;23;20491;-77
2021/06/28 13:07:24;;;;;;;12.30;7.75;;;;;;;32.28;100.00;101184.94;4853456;29;20053;-76
2021/06/28 13:10:10;;;;;;;9.68;7.07;;;;;;;32.45;99.21;101186.81;4865645;29;20044;-76
2021/06/28 13:13:22;;;;;;;8.45;7.10;;;;;;;32.34;100.00;101184.34;4864679;29;20233;-77
2021/06/28 13:16:21;;;;;;;11.25;6.50;;;;;;;32.16;100.00;101184.31;4865944;29;20033;-76
2021/06/28 13:19:12;;;;;;;11.02;6.75;;;;;;;32.79;96.26;101177.78;4865083;29;20029;-76
2021/06/28 13:22:05;;;;;;;9.95;6.47;;;;;;;32.16;100.00;101186.16;4864302;29;20034;-76
2021/06/28 13:24:53;;;;;;;10.75;7.22;;;;;;;32.70;98.65;101177.91;4865130;29;20471;-76
2021/06/28 13:27:39;;;;;;;11.23;6.25;;;;;;;33.18;94.60;101184.56;4867319;29;20510;-77
2021/06/28 13:30:28;;;;;;;9.95;6.28;;;;;;;33.88;91.34;101186.16;4865630;29;20156;-76